createdAt,value
2018-07-20T00:00:59.353Z,65.94
2018-07-20T00:01:59.335Z,65.94
2018-07-20T00:02:59.319Z,65.46
2018-07-20T00:03:59.314Z,64.98
2018-07-20T00:04:59.298Z,65.37
2018-07-20T00:05:59.284Z,65.56
2018-07-20T00:06:59.269Z,65.53
2018-07-20T00:07:59.298Z,66.01
2018-07-20T00:08:59.245Z,65.63
2018-07-20T00:09:59.232Z,65.43
2018-07-20T00:10:59.222Z,65.81
2018-07-20T00:11:59.207Z,66.49
2018-07-20T00:12:59.199Z,65.43
2018-07-20T00:13:59.183Z,65.63
2018-07-20T00:14:59.170Z,65.05
2018-07-20T00:15:59.160Z,64.95
2018-07-20T00:16:59.152Z,65.05
2018-07-20T00:17:59.131Z,65.14
2018-07-20T00:18:59.121Z,65.05
2018-07-20T00:19:59.112Z,65.43
2018-07-20T00:20:59.093Z,65.53
2018-07-20T00:21:59.231Z,65.91
2018-07-20T00:22:59.084Z,66.10
2018-07-20T00:23:59.068Z,66.20
2018-07-20T00:24:59.132Z,66.10
2018-07-20T00:25:59.032Z,65.63
2018-07-20T00:26:59.020Z,65.53
2018-07-20T00:27:59.006Z,65.05
2018-07-20T00:28:58.994Z,64.95
2018-07-20T00:29:58.979Z,65.43
2018-07-20T00:30:58.970Z,66.01
2018-07-20T00:31:58.956Z,65.63
2018-07-20T00:32:58.942Z,65.63
2018-07-20T00:33:58.947Z,64.95
2018-07-20T00:34:58.919Z,64.66
2018-07-20T00:35:58.906Z,65.08
2018-07-20T00:36:58.893Z,64.50
2018-07-20T00:37:58.880Z,64.31
2018-07-20T00:38:58.868Z,64.31
2018-07-20T00:39:58.855Z,64.79
2018-07-20T00:40:58.840Z,64.50
2018-07-20T00:41:58.840Z,64.21
2018-07-20T00:42:58.817Z,64.21
2018-07-20T00:43:58.807Z,64.12
2018-07-20T00:44:58.793Z,64.21
2018-07-20T00:45:58.896Z,64.12
2018-07-20T00:46:58.769Z,63.73
2018-07-20T00:47:58.754Z,63.15
2018-07-20T00:48:58.807Z,63.64
2018-07-20T00:49:58.727Z,64.21
2018-07-20T00:50:58.717Z,64.21
2018-07-20T00:51:58.756Z,63.92
2018-07-20T00:52:58.691Z,63.82
2018-07-20T00:53:58.680Z,64.12
2018-07-20T00:54:58.682Z,64.12
2018-07-20T00:55:58.653Z,64.12
2018-07-20T00:56:58.645Z,64.12
2018-07-20T00:57:58.628Z,64.40
2018-07-20T00:58:58.615Z,63.99
2018-07-20T00:59:58.604Z,64.28
2018-07-20T01:00:58.589Z,64.95
2018-07-20T01:01:58.578Z,64.47
2018-07-20T01:02:58.564Z,64.95
2018-07-20T01:03:58.548Z,64.18
2018-07-20T01:04:58.672Z,64.28
2018-07-20T01:05:58.533Z,64.47
2018-07-20T01:06:58.511Z,64.37
2018-07-20T01:07:58.497Z,64.37
2018-07-20T01:08:58.486Z,65.24
2018-07-20T01:09:58.472Z,65.14
2018-07-20T01:10:58.463Z,65.14
2018-07-20T01:11:58.448Z,64.56
2018-07-20T01:12:58.444Z,64.47
2018-07-20T01:13:58.427Z,65.30
2018-07-20T01:14:58.415Z,65.50
2018-07-20T01:15:58.394Z,65.97
2018-07-20T01:16:58.389Z,65.40
2018-07-20T01:17:58.371Z,65.01
2018-07-20T01:18:58.361Z,64.92
2018-07-20T01:19:58.351Z,65.40
2018-07-20T01:20:58.385Z,65.50
2018-07-20T01:21:58.322Z,65.97
2018-07-20T01:22:58.311Z,66.17
2018-07-20T01:23:58.294Z,66.27
2018-07-20T01:24:58.281Z,66.36
2018-07-20T01:25:58.271Z,66.55
2018-07-20T01:26:58.255Z,66.94
2018-07-20T01:27:58.240Z,66.27
2018-07-20T01:28:58.314Z,66.17
2018-07-20T01:29:58.215Z,66.07
2018-07-20T01:30:58.202Z,65.88
2018-07-20T01:31:58.289Z,66.46
2018-07-20T01:32:58.176Z,66.74
2018-07-20T01:33:58.165Z,67.22
2018-07-20T01:34:58.148Z,67.03
2018-07-20T01:35:58.139Z,66.27
2018-07-20T01:36:58.121Z,66.84
2018-07-20T01:37:58.112Z,66.84
2018-07-20T01:38:58.099Z,66.74
2018-07-20T01:39:58.091Z,66.74
2018-07-20T01:40:58.071Z,66.84
2018-07-20T01:41:58.059Z,66.84
2018-07-20T01:42:58.045Z,66.84
2018-07-20T01:43:58.030Z,66.74
2018-07-20T01:44:58.026Z,66.84
2018-07-20T01:45:58.006Z,66.17
2018-07-20T01:46:57.993Z,66.46
2018-07-20T01:47:58.079Z,66.94
2018-07-20T01:48:57.966Z,66.55
2018-07-20T01:49:57.957Z,66.55
2018-07-20T01:50:57.942Z,67.03
2018-07-20T01:51:57.938Z,67.22
2018-07-20T01:52:57.912Z,66.81
2018-07-20T01:53:57.900Z,67.22
2018-07-20T01:54:57.886Z,67.03
2018-07-20T01:55:57.872Z,67.13
2018-07-20T01:56:57.859Z,67.03
2018-07-20T01:57:57.846Z,66.94
2018-07-20T01:58:58.655Z,67.29
2018-07-20T01:59:57.821Z,67.58
2018-07-20T02:00:57.816Z,67.96
2018-07-20T02:01:57.797Z,67.77
2018-07-20T02:02:57.782Z,67.96
2018-07-20T02:03:57.840Z,67.77
2018-07-20T02:04:57.753Z,66.81
2018-07-20T02:05:57.741Z,67.38
2018-07-20T02:06:57.788Z,67.86
2018-07-20T02:07:57.717Z,68.25
2018-07-20T02:08:57.701Z,68.63
2018-07-20T02:09:57.692Z,68.44
2018-07-20T02:10:57.678Z,67.96
2018-07-20T02:11:57.671Z,67.96
2018-07-20T02:12:57.652Z,68.73
2018-07-20T02:13:57.643Z,68.44
2018-07-20T02:14:57.621Z,68.35
2018-07-20T02:15:57.609Z,68.73
2018-07-20T02:16:57.597Z,68.41
2018-07-20T02:17:57.588Z,69.18
2018-07-20T02:18:57.569Z,69.21
2018-07-20T02:19:57.554Z,68.89
2018-07-20T02:20:57.545Z,69.37
2018-07-20T02:21:57.528Z,68.89
2018-07-20T02:22:57.515Z,68.98
2018-07-20T02:23:57.500Z,69.66
2018-07-20T02:24:57.495Z,69.66
2018-07-20T02:25:57.474Z,69.66
2018-07-20T02:26:57.461Z,70.33
2018-07-20T02:27:57.448Z,70.14
2018-07-20T02:28:57.435Z,70.23
2018-07-20T02:29:57.424Z,70.52
2018-07-20T02:30:57.453Z,70.68
2018-07-20T02:31:57.393Z,70.23
2018-07-20T02:33:41.253Z,70.39
2018-07-20T02:34:41.237Z,70.49
2018-07-20T02:35:41.222Z,70.33
2018-07-20T02:36:41.213Z,70.90
2018-07-20T02:37:41.197Z,70.23
2018-07-20T02:38:41.182Z,70.43
2018-07-20T02:39:41.172Z,70.23
2018-07-20T02:40:41.156Z,70.23
2018-07-20T02:41:41.150Z,70.14
2018-07-20T02:42:41.126Z,70.20
2018-07-20T02:43:41.131Z,70.87
2018-07-20T02:44:41.101Z,71.06
2018-07-20T02:45:41.087Z,70.58
2018-07-20T02:46:41.073Z,70.58
2018-07-20T02:47:41.213Z,70.58
2018-07-20T02:48:41.046Z,70.97
2018-07-20T02:49:41.034Z,70.68
2018-07-20T02:50:41.124Z,70.78
2018-07-20T02:51:41.004Z,70.68
2018-07-20T02:52:40.990Z,70.87
2018-07-20T02:53:40.984Z,70.68
2018-07-20T02:54:40.964Z,70.68
2018-07-20T02:55:40.951Z,70.78
2018-07-20T02:56:40.936Z,70.68
2018-07-20T02:57:40.924Z,70.58
2018-07-20T02:58:40.911Z,70.58
2018-07-20T02:59:40.896Z,70.58
2018-07-20T03:00:40.897Z,70.78
2018-07-20T03:01:40.867Z,70.39
2018-07-20T03:02:40.855Z,70.39
2018-07-20T03:03:40.857Z,70.87
2018-07-20T03:04:40.826Z,70.68
2018-07-20T03:05:40.810Z,70.68
2018-07-20T03:06:40.898Z,70.87
2018-07-20T03:07:40.785Z,71.06
2018-07-20T03:08:40.768Z,71.06
2018-07-20T03:09:43.381Z,71.25
2018-07-20T03:10:40.742Z,71.16
2018-07-20T03:13:43.289Z,71.83
2018-07-20T03:14:10.063Z,71.73
2018-07-20T03:15:10.147Z,71.73
2018-07-20T03:16:10.033Z,71.83
2018-07-20T03:17:10.023Z,71.93
2018-07-20T03:18:10.110Z,72.12
2018-07-20T03:19:09.996Z,72.12
2018-07-20T03:20:09.978Z,71.64
2018-07-20T03:21:09.973Z,72.02
2018-07-20T03:22:09.957Z,71.73
2018-07-20T03:23:09.938Z,72.12
2018-07-20T03:24:09.922Z,72.02
2018-07-20T03:25:09.907Z,71.45
2018-07-20T03:26:09.942Z,71.83
2018-07-20T03:27:09.879Z,72.02
2018-07-20T03:28:09.868Z,72.02
2018-07-20T03:29:09.864Z,72.22
2018-07-20T03:30:09.850Z,71.93
2018-07-20T03:31:09.822Z,72.12
2018-07-20T03:32:09.807Z,72.02
2018-07-20T03:33:09.798Z,72.66
2018-07-20T03:34:09.780Z,72.31
2018-07-20T03:35:09.767Z,72.22
2018-07-20T03:36:09.753Z,72.22
2018-07-20T03:37:09.738Z,72.50
2018-07-20T03:38:09.725Z,72.31
2018-07-20T03:39:09.724Z,72.69
2018-07-20T03:40:09.695Z,72.69
2018-07-20T03:41:09.682Z,72.37
2018-07-20T03:42:09.774Z,72.47
2018-07-20T03:43:09.664Z,72.37
2018-07-20T03:44:09.641Z,72.18
2018-07-20T03:45:09.624Z,72.28
2018-07-20T03:46:09.609Z,72.28
2018-07-20T03:47:09.595Z,72.47
2018-07-20T03:48:42.803Z,72.37
2018-07-20T03:49:09.568Z,72.47
2018-07-20T03:50:09.556Z,72.47
2018-07-20T03:51:09.541Z,72.37
2018-07-20T03:52:09.571Z,72.37
2018-07-20T03:53:09.515Z,72.28
2018-07-20T03:54:09.497Z,72.47
2018-07-20T03:55:09.485Z,72.37
2018-07-20T03:56:09.477Z,72.18
2018-07-20T03:57:09.454Z,71.89
2018-07-20T03:58:09.441Z,72.22
2018-07-20T03:59:09.427Z,72.41
2018-07-20T04:00:09.422Z,72.37
2018-07-20T04:01:09.399Z,72.41
2018-07-20T04:02:09.392Z,72.41
2018-07-20T04:03:09.372Z,71.83
2018-07-20T04:04:09.358Z,72.12
2018-07-20T04:05:09.355Z,72.12
2018-07-20T04:06:09.332Z,72.12
2018-07-20T04:07:09.320Z,71.83
2018-07-20T04:08:09.304Z,71.77
2018-07-20T04:09:09.289Z,71.16
2018-07-20T04:10:09.299Z,71.16
2018-07-20T04:11:09.258Z,71.64
2018-07-20T04:12:09.253Z,71.55
2018-07-20T04:13:09.233Z,71.45
2018-07-20T04:14:09.343Z,71.25
2018-07-20T04:15:09.201Z,71.25
2018-07-20T04:16:09.190Z,71.73
2018-07-20T04:17:09.175Z,72.12
2018-07-20T04:18:09.161Z,72.12
2018-07-20T04:19:09.147Z,71.45
2018-07-20T04:20:09.141Z,70.81
2018-07-20T04:21:09.120Z,70.43
2018-07-20T04:22:09.116Z,71.39
2018-07-20T04:23:09.090Z,70.62
2018-07-20T04:24:09.081Z,70.81
2018-07-20T04:25:09.117Z,70.97
2018-07-20T04:26:09.056Z,71.25
2018-07-20T04:27:09.037Z,71.25
2018-07-20T04:28:09.025Z,71.35
2018-07-20T04:29:09.012Z,71.16
2018-07-20T04:30:08.994Z,71.73
2018-07-20T04:31:08.992Z,71.06
2018-07-20T04:32:08.970Z,71.35
2018-07-20T04:33:08.952Z,71.73
2018-07-20T04:34:08.942Z,71.73
2018-07-20T04:35:08.925Z,71.16
2018-07-20T04:36:08.915Z,70.97
2018-07-20T04:37:08.895Z,70.97
2018-07-20T04:38:08.975Z,71.25
2018-07-20T04:39:08.869Z,71.25
2018-07-20T04:40:08.854Z,72.16
2018-07-20T04:41:08.867Z,72.22
2018-07-20T04:42:08.829Z,72.06
2018-07-20T04:43:08.816Z,72.16
2018-07-20T04:44:08.801Z,71.19
2018-07-20T04:45:08.788Z,71.00
2018-07-20T04:46:08.775Z,70.62
2018-07-20T04:47:08.757Z,71.29
2018-07-20T04:48:08.746Z,70.90
2018-07-20T04:49:08.731Z,70.46
2018-07-20T04:50:08.718Z,70.75
2018-07-20T04:51:08.708Z,69.60
2018-07-20T04:52:08.696Z,69.98
2018-07-20T04:53:08.677Z,70.27
2018-07-20T04:54:08.743Z,70.07
2018-07-20T04:55:08.650Z,70.27
2018-07-20T04:56:08.647Z,69.98
2018-07-20T04:57:08.621Z,70.07
2018-07-20T04:58:08.608Z,69.60
2018-07-20T04:59:08.598Z,69.60
2018-07-20T05:00:08.598Z,69.44
2018-07-20T05:01:08.570Z,68.67
2018-07-20T05:02:08.557Z,68.35
2018-07-20T05:03:08.554Z,69.12
2018-07-20T05:04:08.528Z,69.02
2018-07-20T05:05:08.517Z,68.76
2018-07-20T05:06:08.514Z,68.67
2018-07-20T05:07:08.488Z,68.57
2018-07-20T05:08:08.476Z,68.19
2018-07-20T05:09:08.463Z,68.09
2018-07-20T05:10:08.546Z,67.35
2018-07-20T05:11:08.435Z,66.88
2018-07-20T05:12:08.472Z,67.16
2018-07-20T05:13:08.419Z,66.84
2018-07-20T05:14:08.395Z,67.32
2018-07-20T05:15:08.386Z,67.93
2018-07-20T05:16:08.381Z,67.74
2018-07-20T05:17:08.365Z,67.83
2018-07-20T05:18:08.485Z,67.45
2018-07-20T05:19:08.333Z,67.74
2018-07-20T05:20:08.321Z,67.07
2018-07-20T05:21:08.305Z,66.88
2018-07-20T05:22:08.302Z,67.22
2018-07-20T05:23:08.277Z,68.67
2018-07-20T05:24:08.324Z,68.48
2018-07-20T05:25:08.258Z,68.86
2018-07-20T05:26:08.253Z,68.76
2018-07-20T05:27:08.232Z,68.67
2018-07-20T05:28:08.213Z,68.67
2018-07-20T05:29:08.204Z,68.48
2018-07-20T05:30:08.188Z,68.67
2018-07-20T05:31:08.178Z,68.76
2018-07-20T05:32:08.165Z,68.38
2018-07-20T05:33:08.149Z,68.48
2018-07-20T05:34:08.142Z,68.57
2018-07-20T05:35:08.141Z,68.76
2018-07-20T05:36:08.117Z,68.76
2018-07-20T05:37:08.148Z,68.86
2018-07-20T05:38:08.102Z,68.86
2018-07-20T05:39:08.082Z,68.48
2018-07-20T05:40:08.072Z,68.86
2018-07-20T05:41:08.047Z,68.90
2018-07-20T05:42:08.035Z,68.80
2018-07-20T05:43:08.022Z,67.16
2018-07-20T05:44:08.019Z,67.16
2018-07-20T05:45:07.997Z,66.24
2018-07-20T05:46:07.998Z,65.05
2018-07-20T05:47:07.973Z,62.12
2018-07-20T05:48:07.960Z,60.71
2018-07-20T05:49:07.966Z,59.12
2018-07-20T05:50:08.053Z,57.60
2018-07-20T05:51:07.924Z,56.47
2018-07-20T05:52:07.910Z,54.57
2018-07-20T05:53:07.896Z,54.44
2018-07-20T05:54:07.893Z,54.15
2018-07-20T05:55:07.876Z,54.17
2018-07-20T05:56:07.873Z,54.57
2018-07-20T05:57:07.859Z,53.91
2018-07-20T05:58:07.842Z,52.20
2018-07-20T05:59:07.832Z,51.52
2018-07-20T06:00:07.820Z,50.31
2018-07-20T06:01:07.818Z,49.15
2018-07-20T06:02:07.800Z,49.07
2018-07-20T06:03:07.793Z,49.27
2018-07-20T06:04:07.844Z,48.03
2018-07-20T06:05:07.780Z,47.93
2018-07-20T06:06:07.913Z,47.66
2018-07-20T06:07:07.790Z,48.57
2018-07-20T06:08:07.766Z,49.44
2018-07-20T06:09:07.740Z,50.09
2018-07-20T06:10:07.729Z,50.67
2018-07-20T06:11:07.726Z,49.70
2018-07-20T06:12:07.709Z,50.67
2018-07-20T06:13:07.700Z,50.70
2018-07-20T06:14:07.850Z,50.60
2018-07-20T06:15:07.686Z,49.82
2018-07-20T06:16:07.680Z,50.12
2018-07-20T06:17:07.668Z,50.65
2018-07-20T06:18:07.670Z,51.98
2018-07-20T06:19:07.652Z,51.81
2018-07-20T06:20:07.645Z,51.35
2018-07-20T06:21:07.637Z,49.54
2018-07-20T06:22:07.628Z,49.82
2018-07-20T06:23:07.619Z,49.61
2018-07-20T06:24:07.612Z,49.63
2018-07-20T06:25:07.602Z,49.85
2018-07-20T06:26:07.603Z,48.61
2018-07-20T06:27:07.591Z,47.38
2018-07-20T06:28:07.582Z,45.84
2018-07-20T06:29:07.572Z,45.75
2018-07-20T06:30:07.598Z,45.84
2018-07-20T06:31:07.568Z,46.41
2018-07-20T06:32:07.552Z,47.55
2018-07-20T06:33:07.547Z,46.79
2018-07-20T06:34:07.537Z,46.69
2018-07-20T06:35:07.535Z,46.52
2018-07-20T06:36:07.531Z,46.41
2018-07-20T06:37:07.636Z,46.45
2018-07-20T06:38:07.513Z,47.20
2018-07-20T06:39:07.516Z,47.69
2018-07-20T06:40:07.550Z,48.47
2018-07-20T06:41:07.496Z,49.32
2018-07-20T06:42:07.487Z,49.22
2018-07-20T06:43:07.482Z,49.56
2018-07-20T06:44:07.477Z,51.18
2018-07-20T06:45:07.479Z,52.31
2018-07-20T06:46:07.475Z,52.70
2018-07-20T06:47:07.469Z,52.99
2018-07-20T06:48:07.458Z,53.11
2018-07-20T06:49:07.456Z,52.82
2018-07-20T06:50:07.444Z,51.78
2018-07-20T06:51:07.438Z,50.84
2018-07-20T06:52:07.440Z,49.49
2018-07-20T06:53:07.537Z,50.07
2018-07-20T06:54:07.417Z,50.45
2018-07-20T06:55:07.412Z,49.87
2018-07-20T06:56:07.420Z,49.70
2018-07-20T06:57:07.405Z,49.90
2018-07-20T06:58:07.395Z,50.57
2018-07-20T06:59:07.399Z,49.70
2018-07-20T07:00:07.386Z,49.70
2018-07-20T07:01:07.376Z,49.51
2018-07-20T07:02:07.398Z,50.07
2018-07-20T07:03:07.365Z,50.45
2018-07-20T07:04:07.360Z,50.74
2018-07-20T07:05:07.367Z,50.65
2018-07-20T07:06:07.356Z,51.23
2018-07-20T07:07:07.346Z,51.78
2018-07-20T07:08:07.341Z,51.78
2018-07-20T07:09:07.334Z,51.81
2018-07-20T07:10:07.330Z,51.52
2018-07-20T07:11:07.332Z,50.84
2018-07-20T07:12:07.321Z,50.77
2018-07-20T07:13:07.325Z,50.41
2018-07-20T07:14:07.315Z,49.44
2018-07-20T07:15:07.369Z,49.41
2018-07-20T07:16:07.302Z,50.12
2018-07-20T07:17:07.302Z,50.41
2018-07-20T07:18:07.291Z,50.70
2018-07-20T07:19:07.295Z,49.15
2018-07-20T07:20:07.288Z,49.37
2018-07-20T07:21:07.278Z,48.42
2018-07-20T07:22:07.304Z,48.42
2018-07-20T07:23:07.269Z,48.52
2018-07-20T07:24:07.420Z,48.13
2018-07-20T07:25:07.262Z,49.07
2018-07-20T07:26:07.256Z,49.07
2018-07-20T07:27:07.304Z,49.82
2018-07-20T07:28:07.251Z,50.38
2018-07-20T07:29:07.271Z,50.48
2018-07-20T07:30:07.243Z,50.50
2018-07-20T07:31:07.240Z,50.50
2018-07-20T07:32:07.250Z,49.75
2018-07-20T07:33:07.240Z,49.07
2018-07-20T07:34:07.236Z,49.66
2018-07-20T07:35:07.229Z,49.85
2018-07-20T07:36:07.224Z,50.41
2018-07-20T07:37:07.231Z,51.54
2018-07-20T07:38:07.219Z,51.90
2018-07-20T07:39:07.215Z,52.58
2018-07-20T07:40:07.216Z,53.26
2018-07-20T07:41:07.210Z,52.58
2018-07-20T07:42:07.238Z,52.68
2018-07-20T07:43:07.204Z,52.87
2018-07-20T07:44:07.194Z,52.39
2018-07-20T07:45:07.190Z,52.20
2018-07-20T07:46:07.187Z,52.12
2018-07-20T07:47:07.189Z,52.20
2018-07-20T07:48:07.178Z,52.10
2018-07-20T07:49:07.177Z,52.10
2018-07-20T07:50:07.170Z,51.54
2018-07-20T07:51:07.162Z,51.35
2018-07-20T07:52:07.165Z,51.25
2018-07-20T07:53:07.225Z,50.50
2018-07-20T07:54:07.161Z,50.50
2018-07-20T07:55:07.178Z,49.75
2018-07-20T07:56:07.224Z,49.49
2018-07-20T07:57:07.128Z,49.07
2018-07-20T07:58:07.129Z,48.61
2018-07-20T07:59:07.117Z,48.13
2018-07-20T08:00:07.117Z,48.35
2018-07-20T08:01:07.111Z,47.86
2018-07-20T08:02:07.110Z,47.47
2018-07-20T08:03:07.124Z,47.86
2018-07-20T08:04:07.092Z,47.64
2018-07-20T08:05:07.086Z,48.22
2018-07-20T08:06:07.081Z,49.07
2018-07-20T08:07:07.077Z,50.12
2018-07-20T08:08:07.081Z,50.79
2018-07-20T08:09:07.067Z,51.16
2018-07-20T08:10:07.279Z,51.84
2018-07-20T08:11:07.056Z,52.00
2018-07-20T08:12:07.052Z,52.00
2018-07-20T08:13:07.063Z,52.20
2018-07-20T08:14:07.246Z,52.10
2018-07-20T08:15:07.044Z,52.10
2018-07-20T08:16:07.036Z,52.22
2018-07-20T08:17:07.043Z,51.86
2018-07-20T08:18:07.025Z,50.79
2018-07-20T08:19:07.026Z,50.50
2018-07-20T08:20:07.014Z,50.43
2018-07-20T08:21:07.009Z,49.66
2018-07-20T08:22:07.005Z,49.66
2018-07-20T08:23:07.007Z,49.00
2018-07-20T08:24:06.995Z,48.32
2018-07-20T08:25:06.994Z,48.35
2018-07-20T08:26:06.985Z,47.57
2018-07-20T08:27:06.983Z,47.49
2018-07-20T08:28:06.977Z,46.62
2018-07-20T08:29:06.970Z,46.52
2018-07-20T08:30:06.972Z,46.72
2018-07-20T08:31:06.959Z,46.55
2018-07-20T08:32:06.955Z,46.74
2018-07-20T08:33:06.945Z,45.97
2018-07-20T08:34:06.957Z,46.06
2018-07-20T08:35:06.941Z,46.45
2018-07-20T08:36:06.929Z,46.06
2018-07-20T08:37:06.922Z,46.14
2018-07-20T08:38:06.924Z,46.11
2018-07-20T08:39:06.913Z,45.26
2018-07-20T08:40:06.916Z,44.19
2018-07-20T08:41:06.962Z,43.63
2018-07-20T08:42:06.893Z,43.05
2018-07-20T08:43:06.906Z,42.97
2018-07-20T08:44:06.891Z,44.02
2018-07-20T08:45:06.876Z,45.14
2018-07-20T08:46:06.865Z,46.11
2018-07-20T08:47:06.862Z,46.04
2018-07-20T08:48:06.853Z,45.26
2018-07-20T08:49:06.845Z,45.17
2018-07-20T08:50:06.846Z,44.60
2018-07-20T08:51:06.836Z,44.72
2018-07-20T08:52:06.839Z,44.14
2018-07-20T08:53:06.823Z,43.67
2018-07-20T08:54:06.916Z,43.38
2018-07-20T08:55:06.811Z,42.90
2018-07-20T08:56:06.800Z,42.99
2018-07-20T08:57:06.803Z,43.38
2018-07-20T08:58:06.791Z,42.99
2018-07-20T08:59:06.829Z,43.26
2018-07-20T09:00:06.824Z,43.07
2018-07-20T09:01:06.883Z,42.90
2018-07-20T09:02:06.777Z,42.53
2018-07-20T09:03:06.756Z,42.04
2018-07-20T09:04:06.751Z,42.04
2018-07-20T09:05:06.753Z,41.85
2018-07-20T09:06:06.761Z,41.94
2018-07-20T09:07:06.733Z,41.85
2018-07-20T09:08:06.731Z,42.33
2018-07-20T09:09:06.721Z,42.50
2018-07-20T09:10:06.714Z,42.87
2018-07-20T09:11:06.712Z,42.97
2018-07-20T09:12:06.719Z,43.16
2018-07-20T09:13:06.697Z,42.78
2018-07-20T09:14:06.705Z,42.49
2018-07-20T09:15:06.690Z,42.60
2018-07-20T09:16:06.680Z,42.11
2018-07-20T09:17:06.675Z,41.94
2018-07-20T09:18:06.684Z,40.68
2018-07-20T09:19:06.666Z,40.58
2018-07-20T09:20:06.659Z,39.80
2018-07-20T09:21:06.705Z,40.60
2018-07-20T09:22:06.644Z,40.41
2018-07-20T09:23:06.640Z,40.41
2018-07-20T09:24:06.639Z,40.33
2018-07-20T09:25:06.629Z,39.96
2018-07-20T09:26:06.627Z,40.06
2018-07-20T09:27:06.626Z,39.49
2018-07-20T09:28:06.620Z,38.98
2018-07-20T09:29:06.604Z,38.01
2018-07-20T09:30:06.698Z,38.40
2018-07-20T09:31:06.592Z,38.69
2018-07-20T09:32:06.589Z,38.30
2018-07-20T09:33:06.592Z,38.40
2018-07-20T09:34:06.642Z,36.94
2018-07-20T09:35:06.595Z,37.39
2018-07-20T09:36:06.568Z,39.04
2018-07-20T09:37:06.560Z,38.38
2018-07-20T09:38:06.558Z,38.65
2018-07-20T09:39:06.550Z,39.31
2018-07-20T09:40:06.556Z,39.22
2018-07-20T09:41:06.542Z,39.51
2018-07-20T09:42:06.547Z,38.85
2018-07-20T09:43:06.539Z,38.67
2018-07-20T09:44:06.543Z,38.77
2018-07-20T09:45:06.527Z,38.98
2018-07-20T09:46:06.513Z,38.79
2018-07-20T09:47:06.519Z,37.27
2018-07-20T09:48:06.506Z,37.21
2018-07-20T09:49:06.503Z,36.43
2018-07-20T09:50:06.901Z,35.75
2018-07-20T09:51:06.507Z,35.28
2018-07-20T09:52:06.503Z,35.28
2018-07-20T09:53:06.489Z,33.94
2018-07-20T09:54:06.482Z,34.14
2018-07-20T09:55:06.496Z,33.87
2018-07-20T09:56:06.476Z,33.10
2018-07-20T09:57:06.471Z,32.90
2018-07-20T09:58:06.477Z,32.53
2018-07-20T09:59:06.471Z,31.65
2018-07-20T10:00:06.464Z,32.63
2018-07-20T10:01:06.453Z,31.96
2018-07-20T10:02:06.452Z,31.48
2018-07-20T10:03:06.454Z,30.52
2018-07-20T10:04:06.571Z,30.73
2018-07-20T10:05:06.532Z,30.62
2018-07-20T10:06:06.439Z,31.01
2018-07-20T10:07:06.437Z,30.62
2018-07-20T10:08:06.441Z,30.52
2018-07-20T10:09:06.434Z,31.10
2018-07-20T10:10:06.433Z,30.81
2018-07-20T10:11:06.429Z,30.91
2018-07-20T10:12:06.433Z,31.29
2018-07-20T10:13:06.426Z,31.77
2018-07-20T10:14:06.423Z,31.40
2018-07-20T10:15:06.426Z,30.73
2018-07-20T10:16:06.430Z,29.87
2018-07-20T10:17:06.492Z,29.77
2018-07-20T10:18:06.423Z,29.28
2018-07-20T10:19:06.493Z,29.38
2018-07-20T10:20:06.422Z,28.61
2018-07-20T10:21:06.423Z,27.92
2018-07-20T10:22:06.423Z,28.33
2018-07-20T10:23:06.426Z,27.94
2018-07-20T10:24:06.429Z,27.75
2018-07-20T10:25:06.427Z,27.44
2018-07-20T10:26:06.440Z,27.26
2018-07-20T10:27:06.482Z,27.16
2018-07-20T10:28:06.439Z,27.36
2018-07-20T10:29:06.449Z,27.75
2018-07-20T10:30:06.492Z,28.23
2018-07-20T10:31:06.453Z,28.33
2018-07-20T10:32:06.456Z,28.72
2018-07-20T10:33:06.453Z,28.52
2018-07-20T10:34:06.457Z,27.56
2018-07-20T10:35:06.461Z,28.02
2018-07-20T10:36:06.466Z,28.63
2018-07-20T10:37:06.473Z,28.03
2018-07-20T10:38:06.478Z,27.66
2018-07-20T10:39:06.483Z,28.05
2018-07-20T10:40:06.635Z,27.67
2018-07-20T10:41:06.499Z,27.75
2018-07-20T10:42:06.493Z,27.66
2018-07-20T10:43:06.521Z,27.56
2018-07-20T10:44:06.504Z,27.76
2018-07-20T10:45:06.711Z,26.88
2018-07-20T10:46:06.530Z,26.57
2018-07-20T10:47:06.528Z,27.45
2018-07-20T10:48:06.526Z,27.75
2018-07-20T10:49:06.533Z,27.74
2018-07-20T10:50:06.534Z,27.74
2018-07-20T10:51:06.551Z,27.64
2018-07-20T10:52:06.569Z,27.74
2018-07-20T10:53:06.554Z,28.19
2018-07-20T10:54:06.566Z,29.37
2018-07-20T10:55:06.564Z,29.47
2018-07-20T10:56:06.570Z,29.76
2018-07-20T10:57:06.579Z,29.94
2018-07-20T10:58:06.643Z,30.24
2018-07-20T10:59:06.589Z,30.52
2018-07-20T11:00:06.597Z,30.70
2018-07-20T11:01:06.600Z,30.88
2018-07-20T11:02:06.601Z,31.26
2018-07-20T11:03:06.608Z,31.65
2018-07-20T11:04:06.616Z,31.45
2018-07-20T11:05:06.618Z,31.84
2018-07-20T11:06:06.623Z,32.04
2018-07-20T11:07:06.626Z,31.67
2018-07-20T11:08:06.740Z,31.37
2018-07-20T11:09:06.630Z,31.09
2018-07-20T11:10:06.635Z,30.70
2018-07-20T11:11:06.637Z,29.93
2018-07-20T11:12:06.641Z,29.27
2018-07-20T11:13:06.644Z,28.99
2018-07-20T11:14:06.647Z,28.50
2018-07-20T11:15:06.656Z,28.02
2018-07-20T11:16:06.657Z,28.22
2018-07-20T11:17:06.665Z,28.61
2018-07-20T11:18:06.845Z,27.44
2018-07-20T11:19:06.680Z,27.62
2018-07-20T11:20:06.690Z,27.32
2018-07-20T11:21:06.677Z,26.82
2018-07-20T11:22:06.686Z,26.43
2018-07-20T11:23:06.686Z,27.31
2018-07-20T11:24:06.699Z,27.78
2018-07-20T11:25:06.696Z,28.06
2018-07-20T11:26:06.727Z,28.15
2018-07-20T11:27:06.713Z,29.11
2018-07-20T11:28:06.744Z,28.93
2018-07-20T11:29:06.713Z,28.34
2018-07-20T11:30:06.719Z,28.15
2018-07-20T11:31:06.855Z,27.56
2018-07-20T11:32:06.727Z,27.66
2018-07-20T11:33:06.732Z,28.54
2018-07-20T11:34:06.746Z,28.63
2018-07-20T11:35:06.740Z,29.18
2018-07-20T11:36:06.842Z,30.16
2018-07-20T11:37:06.767Z,30.43
2018-07-20T11:38:06.753Z,30.72
2018-07-20T11:39:06.770Z,30.74
2018-07-20T11:40:06.771Z,31.01
2018-07-20T11:41:06.762Z,31.31
2018-07-20T11:42:06.772Z,30.72
2018-07-20T11:43:06.775Z,30.83
2018-07-20T11:44:06.776Z,30.36
2018-07-20T11:45:06.787Z,29.69
2018-07-20T11:46:06.783Z,29.59
2018-07-20T11:47:06.792Z,29.79
2018-07-20T11:48:06.787Z,29.30
2018-07-20T11:49:06.926Z,29.79
2018-07-20T11:50:06.791Z,29.11
2018-07-20T11:51:06.807Z,29.97
2018-07-20T11:52:09.416Z,30.62
2018-07-20T11:53:06.796Z,32.26
2018-07-20T11:54:06.801Z,32.91
2018-07-20T11:55:06.814Z,33.50
2018-07-20T11:56:06.802Z,33.70
2018-07-20T11:57:06.802Z,32.75
2018-07-20T11:58:06.811Z,32.27
2018-07-20T11:59:06.801Z,31.59
2018-07-20T12:00:06.825Z,31.59
2018-07-20T12:01:06.803Z,31.21
2018-07-20T12:02:06.802Z,31.31
2018-07-20T12:03:06.800Z,31.23
2018-07-20T12:04:06.811Z,31.70
2018-07-20T12:05:06.798Z,30.83
2018-07-20T12:06:06.812Z,31.21
2018-07-20T12:07:06.808Z,31.88
2018-07-20T12:08:06.805Z,32.56
2018-07-20T12:09:06.803Z,32.94
2018-07-20T12:10:06.792Z,32.84
2018-07-20T12:11:06.793Z,33.59
2018-07-20T12:12:06.803Z,33.89
2018-07-20T12:13:06.792Z,34.18
2018-07-20T12:14:06.809Z,34.38
2018-07-20T12:15:06.787Z,33.70
2018-07-20T12:16:06.785Z,33.80
2018-07-20T12:17:06.784Z,33.70
2018-07-20T12:18:06.783Z,33.82
2018-07-20T12:19:06.780Z,32.94
2018-07-20T12:20:06.780Z,32.75
2018-07-20T12:21:06.775Z,32.75
2018-07-20T12:22:06.772Z,32.75
2018-07-20T12:23:06.769Z,32.46
2018-07-20T12:24:06.768Z,31.98
2018-07-20T12:25:06.781Z,31.78
2018-07-20T12:26:06.821Z,31.99
2018-07-20T12:27:06.765Z,32.39
2018-07-20T12:28:06.805Z,32.46
2018-07-20T12:29:06.753Z,32.37
2018-07-20T12:30:06.753Z,32.39
2018-07-20T12:31:06.749Z,31.80
2018-07-20T12:32:06.752Z,31.80
2018-07-20T12:33:06.761Z,30.91
2018-07-20T12:34:06.796Z,30.82
2018-07-20T12:35:06.741Z,31.59
2018-07-20T12:36:06.868Z,32.06
2018-07-20T12:37:06.750Z,32.55
2018-07-20T12:38:06.731Z,32.82
2018-07-20T12:39:06.729Z,33.33
2018-07-20T12:40:06.726Z,33.72
2018-07-20T12:41:06.726Z,34.39
2018-07-20T12:42:06.736Z,35.27
2018-07-20T12:43:06.723Z,35.17
2018-07-20T12:44:06.719Z,34.31
2018-07-20T12:45:07.033Z,34.33
2018-07-20T12:46:06.709Z,34.14
2018-07-20T12:47:06.717Z,33.26
2018-07-20T12:48:06.711Z,32.87
2018-07-20T12:49:06.903Z,32.35
2018-07-20T12:50:06.776Z,32.32
2018-07-20T12:51:06.697Z,32.52
2018-07-20T12:52:06.689Z,32.81
2018-07-20T12:53:06.697Z,32.55
2018-07-20T12:54:06.694Z,32.16
2018-07-20T12:55:06.681Z,31.77